Terminal Aerodrome Forecast
Issued by NWS Sioux Falls, SD

Home | Current Version | Previous Version | Text Only | Print | Product List | Glossary On
Versions: 1 2 3 4 5 6 7 8 9 10 11 12 13 14 15 16 17 18 19 20
000
FTUS43 KFSD 251100
TAFHON
TAF
KHON 251136Z 2512/2612 05005KT P6SM SCT150
     FM251500 34017G25KT P6SM SCT020
     FM252100 34012G18KT P6SM SKC
     FM260100 33005KT P6SM SKC
     FM260900 14003KT P6SM BKN120=

USA.gov is the U.S. government's official web portal to all federal, state and local government web resources and services.